sensor_id;sensor_type;location;lat;lon;timestamp;P1;durP1;ratioP1;P2;durP2;ratioP2
34471;SDS011;20710;49.976;19.836;2024-01-10T00:00:00;233.40;;;70.00;;
34471;SDS011;20710;49.976;19.836;2024-01-10T00:06:02;243.40;;;74.10;;
34471;SDS011;20710;49.976;19.836;2024-01-10T00:12:04;286.40;;;89.20;;
34471;SDS011;20710;49.976;19.836;2024-01-10T00:18:06;304.20;;;93.80;;
34471;SDS011;20710;49.976;19.836;2024-01-10T00:24:07;310.80;;;100.00;;
34471;SDS011;20710;49.976;19.836;2024-01-10T00:30:09;299.40;;;94.00;;
34471;SDS011;20710;49.976;19.836;2024-01-10T00:36:11;348.30;;;106.30;;
34471;SDS011;20710;49.976;19.836;2024-01-10T00:42:13;300.60;;;94.70;;
34471;SDS011;20710;49.976;19.836;2024-01-10T00:48:15;306.30;;;101.10;;
34471;SDS011;20710;49.976;19.836;2024-01-10T00:54:18;373.90;;;114.10;;
34471;SDS011;20710;49.976;19.836;2024-01-10T01:00:20;343.00;;;108.60;;
34471;SDS011;20710;49.976;19.836;2024-01-10T01:06:22;314.30;;;95.20;;
34471;SDS011;20710;49.976;19.836;2024-01-10T01:12:24;281.60;;;87.80;;
34471;SDS011;20710;49.976;19.836;2024-01-10T01:18:25;284.60;;;90.90;;
34471;SDS011;20710;49.976;19.836;2024-01-10T01:24:27;251.70;;;80.60;;
34471;SDS011;20710;49.976;19.836;2024-01-10T01:30:29;246.40;;;83.30;;
34471;SDS011;20710;49.976;19.836;2024-01-10T01:36:31;326.20;;;95.50;;
34471;SDS011;20710;49.976;19.836;2024-01-10T01:42:32;334.00;;;102.40;;
34471;SDS011;20710;49.976;19.836;2024-01-10T01:48:34;315.90;;;100.40;;
34471;SDS011;20710;49.976;19.836;2024-01-10T01:54:36;295.00;;;94.60;;
34471;SDS011;20710;49.976;19.836;2024-01-10T02:00:42;320.20;;;103.30;;
34471;SDS011;20710;49.976;19.836;2024-01-10T02:06:45;340.60;;;105.20;;
34471;SDS011;20710;49.976;19.836;2024-01-10T02:12:47;340.70;;;105.50;;
34471;SDS011;20710;49.976;19.836;2024-01-10T02:18:49;343.60;;;113.60;;
34471;SDS011;20710;49.976;19.836;2024-01-10T02:24:53;351.00;;;110.70;;
34471;SDS011;20710;49.976;19.836;2024-01-10T02:37:32;283.60;;;93.00;;
34471;SDS011;20710;49.976;19.836;2024-01-10T02:43:34;258.50;;;78.80;;
34471;SDS011;20710;49.976;19.836;2024-01-10T02:49:35;254.80;;;78.00;;
34471;SDS011;20710;49.976;19.836;2024-01-10T02:55:37;277.30;;;84.10;;
34471;SDS011;20710;49.976;19.836;2024-01-10T03:01:39;255.00;;;82.50;;
34471;SDS011;20710;49.976;19.836;2024-01-10T03:07:41;287.90;;;88.10;;
34471;SDS011;20710;49.976;19.836;2024-01-10T03:13:43;300.70;;;92.40;;
34471;SDS011;20710;49.976;19.836;2024-01-10T03:19:47;293.20;;;87.80;;
34471;SDS011;20710;49.976;19.836;2024-01-10T03:25:49;262.40;;;82.90;;
34471;SDS011;20710;49.976;19.836;2024-01-10T03:31:50;262.50;;;86.10;;
34471;SDS011;20710;49.976;19.836;2024-01-10T03:37:52;291.80;;;88.90;;
34471;SDS011;20710;49.976;19.836;2024-01-10T03:43:54;258.10;;;85.30;;
34471;SDS011;20710;49.976;19.836;2024-01-10T03:49:56;280.00;;;92.90;;
34471;SDS011;20710;49.976;19.836;2024-01-10T03:55:57;292.60;;;92.60;;
34471;SDS011;20710;49.976;19.836;2024-01-10T04:01:59;284.40;;;92.00;;
34471;SDS011;20710;49.976;19.836;2024-01-10T04:08:02;291.20;;;90.30;;
34471;SDS011;20710;49.976;19.836;2024-01-10T04:14:05;246.60;;;80.10;;
34471;SDS011;20710;49.976;19.836;2024-01-10T04:20:07;266.30;;;84.00;;
34471;SDS011;20710;49.976;19.836;2024-01-10T04:26:10;275.10;;;87.70;;
34471;SDS011;20710;49.976;19.836;2024-01-10T04:32:11;248.40;;;84.00;;
34471;SDS011;20710;49.976;19.836;2024-01-10T04:38:13;269.40;;;82.30;;
34471;SDS011;20710;49.976;19.836;2024-01-10T04:44:16;276.50;;;86.20;;
34471;SDS011;20710;49.976;19.836;2024-01-10T04:50:17;242.40;;;79.30;;
34471;SDS011;20710;49.976;19.836;2024-01-10T04:56:39;222.70;;;77.60;;
34471;SDS011;20710;49.976;19.836;2024-01-10T05:02:41;252.40;;;78.20;;
34471;SDS011;20710;49.976;19.836;2024-01-10T05:08:44;256.60;;;80.20;;
34471;SDS011;20710;49.976;19.836;2024-01-10T05:14:46;234.60;;;73.70;;
34471;SDS011;20710;49.976;19.836;2024-01-10T05:20:48;245.20;;;80.00;;
34471;SDS011;20710;49.976;19.836;2024-01-10T05:26:50;215.80;;;69.70;;
34471;SDS011;20710;49.976;19.836;2024-01-10T05:32:52;225.20;;;70.30;;
34471;SDS011;20710;49.976;19.836;2024-01-10T05:38:56;210.30;;;69.10;;
34471;SDS011;20710;49.976;19.836;2024-01-10T05:44:57;191.20;;;68.50;;
34471;SDS011;20710;49.976;19.836;2024-01-10T05:51:01;215.70;;;74.20;;
34471;SDS011;20710;49.976;19.836;2024-01-10T05:57:03;223.20;;;69.70;;
34471;SDS011;20710;49.976;19.836;2024-01-10T06:03:06;156.00;;;50.70;;
34471;SDS011;20710;49.976;19.836;2024-01-10T06:09:28;217.80;;;77.00;;
34471;SDS011;20710;49.976;19.836;2024-01-10T06:15:39;248.70;;;81.70;;
34471;SDS011;20710;49.976;19.836;2024-01-10T06:21:40;265.00;;;86.40;;
34471;SDS011;20710;49.976;19.836;2024-01-10T06:27:43;203.00;;;73.20;;
34471;SDS011;20710;49.976;19.836;2024-01-10T06:33:45;227.50;;;80.80;;
34471;SDS011;20710;49.976;19.836;2024-01-10T06:39:46;263.70;;;85.70;;
34471;SDS011;20710;49.976;19.836;2024-01-10T06:45:48;261.40;;;81.70;;
34471;SDS011;20710;49.976;19.836;2024-01-10T06:51:50;267.60;;;84.60;;
34471;SDS011;20710;49.976;19.836;2024-01-10T06:57:52;311.20;;;95.00;;
34471;SDS011;20710;49.976;19.836;2024-01-10T07:04:14;304.50;;;94.50;;
34471;SDS011;20710;49.976;19.836;2024-01-10T07:10:17;242.90;;;85.50;;
34471;SDS011;20710;49.976;19.836;2024-01-10T07:16:19;322.70;;;101.10;;
34471;SDS011;20710;49.976;19.836;2024-01-10T07:22:21;310.10;;;95.80;;
34471;SDS011;20710;49.976;19.836;2024-01-10T07:28:23;271.70;;;88.70;;
34471;SDS011;20710;49.976;19.836;2024-01-10T07:34:25;291.00;;;96.40;;
34471;SDS011;20710;49.976;19.836;2024-01-10T07:40:26;277.00;;;89.90;;
34471;SDS011;20710;49.976;19.836;2024-01-10T07:46:48;304.30;;;96.20;;
34471;SDS011;20710;49.976;19.836;2024-01-10T07:52:52;304.10;;;93.90;;
34471;SDS011;20710;49.976;19.836;2024-01-10T07:58:54;354.70;;;103.50;;
34471;SDS011;20710;49.976;19.836;2024-01-10T08:05:16;326.60;;;102.20;;
34471;SDS011;20710;49.976;19.836;2024-01-10T08:11:46;360.90;;;111.40;;
34471;SDS011;20710;49.976;19.836;2024-01-10T08:17:51;345.70;;;107.80;;
34471;SDS011;20710;49.976;19.836;2024-01-10T08:24:18;399.00;;;129.80;;
34471;SDS011;20710;49.976;19.836;2024-01-10T08:30:20;395.50;;;135.30;;
34471;SDS011;20710;49.976;19.836;2024-01-10T08:36:52;430.10;;;143.50;;
34471;SDS011;20710;49.976;19.836;2024-01-10T08:42:54;431.50;;;145.60;;
34471;SDS011;20710;49.976;19.836;2024-01-10T08:48:56;406.60;;;138.80;;
34471;SDS011;20710;49.976;19.836;2024-01-10T08:55:26;348.00;;;112.50;;
34471;SDS011;20710;49.976;19.836;2024-01-10T09:01:29;415.70;;;147.30;;
34471;SDS011;20710;49.976;19.836;2024-01-10T09:07:31;408.10;;;145.00;;
34471;SDS011;20710;49.976;19.836;2024-01-10T09:13:34;398.30;;;144.50;;
34471;SDS011;20710;49.976;19.836;2024-01-10T09:19:37;379.10;;;137.80;;
34471;SDS011;20710;49.976;19.836;2024-01-10T09:25:39;352.60;;;133.30;;
34471;SDS011;20710;49.976;19.836;2024-01-10T09:31:41;385.90;;;142.00;;
34471;SDS011;20710;49.976;19.836;2024-01-10T09:37:43;381.50;;;142.90;;
34471;SDS011;20710;49.976;19.836;2024-01-10T09:44:33;368.20;;;137.50;;
34471;SDS011;20710;49.976;19.836;2024-01-10T09:50:35;345.30;;;135.10;;
34471;SDS011;20710;49.976;19.836;2024-01-10T09:57:04;343.40;;;139.30;;
34471;SDS011;20710;49.976;19.836;2024-01-10T10:03:09;372.70;;;142.20;;
34471;SDS011;20710;49.976;19.836;2024-01-10T10:09:15;374.40;;;151.40;;
34471;SDS011;20710;49.976;19.836;2024-01-10T10:15:36;396.60;;;161.90;;
34471;SDS011;20710;49.976;19.836;2024-01-10T10:21:38;411.70;;;169.90;;
34471;SDS011;20710;49.976;19.836;2024-01-10T10:27:57;396.20;;;167.20;;
34471;SDS011;20710;49.976;19.836;2024-01-10T10:34:22;379.70;;;157.60;;
34471;SDS011;20710;49.976;19.836;2024-01-10T10:40:44;385.40;;;163.10;;
34471;SDS011;20710;49.976;19.836;2024-01-10T10:47:36;375.80;;;156.70;;
34471;SDS011;20710;49.976;19.836;2024-01-10T10:54:02;383.90;;;162.40;;
34471;SDS011;20710;49.976;19.836;2024-01-10T11:01:12;404.20;;;169.40;;
34471;SDS011;20710;49.976;19.836;2024-01-10T11:07:15;394.70;;;164.50;;
34471;SDS011;20710;49.976;19.836;2024-01-10T11:27:21;359.30;;;150.40;;
34471;SDS011;20710;49.976;19.836;2024-01-10T11:33:32;356.90;;;146.60;;
34471;SDS011;20710;49.976;19.836;2024-01-10T11:40:45;356.10;;;145.80;;
34471;SDS011;20710;49.976;19.836;2024-01-10T11:46:50;325.20;;;132.40;;
34471;SDS011;20710;49.976;19.836;2024-01-10T11:52:55;326.20;;;128.00;;
34471;SDS011;20710;49.976;19.836;2024-01-10T11:59:59;275.40;;;112.40;;
34471;SDS011;20710;49.976;19.836;2024-01-10T12:06:41;275.40;;;113.30;;
34471;SDS011;20710;49.976;19.836;2024-01-10T12:13:04;265.60;;;109.00;;
34471;SDS011;20710;49.976;19.836;2024-01-10T12:19:55;258.60;;;108.20;;
34471;SDS011;20710;49.976;19.836;2024-01-10T12:26:18;258.90;;;104.80;;
34471;SDS011;20710;49.976;19.836;2024-01-10T12:32:50;296.20;;;122.10;;
34471;SDS011;20710;49.976;19.836;2024-01-10T12:39:42;282.70;;;115.20;;
34471;SDS011;20710;49.976;19.836;2024-01-10T12:46:07;222.10;;;91.60;;
34471;SDS011;20710;49.976;19.836;2024-01-10T12:52:12;249.50;;;104.30;;
34471;SDS011;20710;49.976;19.836;2024-01-10T12:59:11;238.30;;;97.00;;
34471;SDS011;20710;49.976;19.836;2024-01-10T13:05:34;294.30;;;119.70;;
34471;SDS011;20710;49.976;19.836;2024-01-10T13:11:35;268.10;;;114.60;;
34471;SDS011;20710;49.976;19.836;2024-01-10T13:17:57;293.90;;;122.10;;
34471;SDS011;20710;49.976;19.836;2024-01-10T13:24:20;287.70;;;125.20;;
34471;SDS011;20710;49.976;19.836;2024-01-10T13:30:43;315.40;;;135.80;;
34471;SDS011;20710;49.976;19.836;2024-01-10T13:36:46;302.40;;;133.30;;
34471;SDS011;20710;49.976;19.836;2024-01-10T13:43:48;322.80;;;137.30;;
34471;SDS011;20710;49.976;19.836;2024-01-10T13:50:30;312.50;;;132.10;;
34471;SDS011;20710;49.976;19.836;2024-01-10T13:56:32;299.50;;;130.10;;
34471;SDS011;20710;49.976;19.836;2024-01-10T14:02:51;281.00;;;121.90;;
34471;SDS011;20710;49.976;19.836;2024-01-10T14:09:16;307.20;;;132.90;;
34471;SDS011;20710;49.976;19.836;2024-01-10T14:15:38;278.30;;;119.20;;
34471;SDS011;20710;49.976;19.836;2024-01-10T14:21:40;257.90;;;104.90;;
34471;SDS011;20710;49.976;19.836;2024-01-10T14:28:42;248.60;;;102.00;;
34471;SDS011;20710;49.976;19.836;2024-01-10T14:35:04;265.30;;;111.30;;
34471;SDS011;20710;49.976;19.836;2024-01-10T14:41:30;268.50;;;111.20;;
34471;SDS011;20710;49.976;19.836;2024-01-10T14:47:32;268.60;;;111.50;;
34471;SDS011;20710;49.976;19.836;2024-01-10T14:53:34;280.80;;;115.90;;
34471;SDS011;20710;49.976;19.836;2024-01-10T15:00:24;264.60;;;113.80;;
34471;SDS011;20710;49.976;19.836;2024-01-10T15:06:46;264.30;;;110.30;;
34471;SDS011;20710;49.976;19.836;2024-01-10T15:12:48;275.40;;;113.50;;
34471;SDS011;20710;49.976;19.836;2024-01-10T15:18:50;262.10;;;105.60;;
34471;SDS011;20710;49.976;19.836;2024-01-10T15:24:53;269.70;;;113.60;;
34471;SDS011;20710;49.976;19.836;2024-01-10T15:31:17;296.70;;;120.60;;
34471;SDS011;20710;49.976;19.836;2024-01-10T15:37:20;317.60;;;129.60;;
34471;SDS011;20710;49.976;19.836;2024-01-10T15:43:21;281.90;;;118.80;;
34471;SDS011;20710;49.976;19.836;2024-01-10T15:50:05;315.60;;;128.00;;
34471;SDS011;20710;49.976;19.836;2024-01-10T15:56:11;307.40;;;129.00;;
34471;SDS011;20710;49.976;19.836;2024-01-10T16:03:13;348.10;;;145.70;;
34471;SDS011;20710;49.976;19.836;2024-01-10T16:09:15;367.60;;;155.40;;
34471;SDS011;20710;49.976;19.836;2024-01-10T16:15:16;406.40;;;157.70;;
34471;SDS011;20710;49.976;19.836;2024-01-10T16:21:24;392.10;;;161.70;;
34471;SDS011;20710;49.976;19.836;2024-01-10T16:27:26;405.00;;;160.40;;
34471;SDS011;20710;49.976;19.836;2024-01-10T16:33:48;394.10;;;160.00;;
34471;SDS011;20710;49.976;19.836;2024-01-10T16:39:50;389.60;;;157.20;;
34471;SDS011;20710;49.976;19.836;2024-01-10T16:45:55;422.80;;;166.90;;
34471;SDS011;20710;49.976;19.836;2024-01-10T16:52:11;433.80;;;173.50;;
34471;SDS011;20710;49.976;19.836;2024-01-10T16:58:13;416.10;;;165.10;;
34471;SDS011;20710;49.976;19.836;2024-01-10T17:04:15;394.20;;;159.10;;
34471;SDS011;20710;49.976;19.836;2024-01-10T17:10:17;390.60;;;157.80;;
34471;SDS011;20710;49.976;19.836;2024-01-10T17:16:19;409.70;;;160.00;;
34471;SDS011;20710;49.976;19.836;2024-01-10T17:22:39;348.80;;;135.90;;
34471;SDS011;20710;49.976;19.836;2024-01-10T17:28:40;364.80;;;144.00;;
34471;SDS011;20710;49.976;19.836;2024-01-10T17:34:42;375.10;;;147.40;;
34471;SDS011;20710;49.976;19.836;2024-01-10T17:40:45;416.10;;;159.70;;
34471;SDS011;20710;49.976;19.836;2024-01-10T17:46:49;369.80;;;145.30;;
34471;SDS011;20710;49.976;19.836;2024-01-10T17:52:51;399.20;;;152.70;;
34471;SDS011;20710;49.976;19.836;2024-01-10T17:58:53;394.80;;;147.40;;
34471;SDS011;20710;49.976;19.836;2024-01-10T18:04:57;355.60;;;140.30;;
34471;SDS011;20710;49.976;19.836;2024-01-10T18:11:19;325.90;;;119.20;;
34471;SDS011;20710;49.976;19.836;2024-01-10T18:17:20;352.60;;;127.60;;
34471;SDS011;20710;49.976;19.836;2024-01-10T18:23:22;377.70;;;140.50;;
34471;SDS011;20710;49.976;19.836;2024-01-10T18:29:24;340.70;;;131.70;;
34471;SDS011;20710;49.976;19.836;2024-01-10T18:35:26;352.40;;;128.00;;
34471;SDS011;20710;49.976;19.836;2024-01-10T18:41:54;347.80;;;130.80;;
34471;SDS011;20710;49.976;19.836;2024-01-10T18:47:56;352.10;;;129.20;;
34471;SDS011;20710;49.976;19.836;2024-01-10T18:54:01;356.20;;;129.50;;
34471;SDS011;20710;49.976;19.836;2024-01-10T19:00:07;347.10;;;123.40;;
34471;SDS011;20710;49.976;19.836;2024-01-10T19:06:10;320.10;;;118.40;;
34471;SDS011;20710;49.976;19.836;2024-01-10T19:12:12;305.00;;;118.70;;
34471;SDS011;20710;49.976;19.836;2024-01-10T19:18:14;342.90;;;128.30;;
34471;SDS011;20710;49.976;19.836;2024-01-10T19:25:13;365.40;;;133.80;;
34471;SDS011;20710;49.976;19.836;2024-01-10T19:32:01;343.80;;;123.60;;
34471;SDS011;20710;49.976;19.836;2024-01-10T19:45:45;346.30;;;124.20;;
34471;SDS011;20710;49.976;19.836;2024-01-10T19:58:18;350.00;;;123.90;;
34471;SDS011;20710;49.976;19.836;2024-01-10T20:04:22;412.10;;;153.30;;
34471;SDS011;20710;49.976;19.836;2024-01-10T20:11:11;322.00;;;118.70;;
34471;SDS011;20710;49.976;19.836;2024-01-10T20:17:15;406.90;;;144.60;;
34471;SDS011;20710;49.976;19.836;2024-01-10T20:23:25;349.80;;;133.00;;
34471;SDS011;20710;49.976;19.836;2024-01-10T20:29:58;367.80;;;135.50;;
34471;SDS011;20710;49.976;19.836;2024-01-10T20:36:03;394.70;;;138.60;;
34471;SDS011;20710;49.976;19.836;2024-01-10T20:42:06;372.70;;;135.20;;
34471;SDS011;20710;49.976;19.836;2024-01-10T20:48:08;385.10;;;137.90;;
34471;SDS011;20710;49.976;19.836;2024-01-10T20:54:12;393.00;;;138.00;;
34471;SDS011;20710;49.976;19.836;2024-01-10T21:00:14;369.90;;;136.10;;
34471;SDS011;20710;49.976;19.836;2024-01-10T21:06:38;324.10;;;119.90;;
34471;SDS011;20710;49.976;19.836;2024-01-10T21:12:43;415.80;;;145.10;;
34471;SDS011;20710;49.976;19.836;2024-01-10T21:18:45;422.10;;;151.00;;
34471;SDS011;20710;49.976;19.836;2024-01-10T21:24:47;348.30;;;123.10;;
34471;SDS011;20710;49.976;19.836;2024-01-10T21:30:49;371.50;;;136.50;;
34471;SDS011;20710;49.976;19.836;2024-01-10T21:36:53;360.10;;;136.30;;
34471;SDS011;20710;49.976;19.836;2024-01-10T21:42:58;362.90;;;133.30;;
34471;SDS011;20710;49.976;19.836;2024-01-10T21:49:00;392.40;;;136.60;;
34471;SDS011;20710;49.976;19.836;2024-01-10T21:55:11;386.20;;;134.70;;
34471;SDS011;20710;49.976;19.836;2024-01-10T22:01:46;366.40;;;125.70;;
34471;SDS011;20710;49.976;19.836;2024-01-10T22:07:48;370.80;;;128.50;;
34471;SDS011;20710;49.976;19.836;2024-01-10T22:13:53;367.70;;;128.70;;
34471;SDS011;20710;49.976;19.836;2024-01-10T22:20:04;381.90;;;133.00;;
34471;SDS011;20710;49.976;19.836;2024-01-10T22:26:22;374.20;;;130.70;;
34471;SDS011;20710;49.976;19.836;2024-01-10T22:32:26;387.00;;;134.50;;
34471;SDS011;20710;49.976;19.836;2024-01-10T22:38:46;395.30;;;135.80;;
34471;SDS011;20710;49.976;19.836;2024-01-10T22:44:48;400.70;;;139.50;;
34471;SDS011;20710;49.976;19.836;2024-01-10T22:50:50;382.80;;;133.60;;
34471;SDS011;20710;49.976;19.836;2024-01-10T22:56:52;381.30;;;130.40;;
34471;SDS011;20710;49.976;19.836;2024-01-10T23:02:53;379.50;;;134.20;;
34471;SDS011;20710;49.976;19.836;2024-01-10T23:08:59;381.70;;;130.50;;
34471;SDS011;20710;49.976;19.836;2024-01-10T23:15:22;370.70;;;130.80;;
34471;SDS011;20710;49.976;19.836;2024-01-10T23:21:24;362.30;;;130.40;;
34471;SDS011;20710;49.976;19.836;2024-01-10T23:27:36;375.00;;;128.50;;
34471;SDS011;20710;49.976;19.836;2024-01-10T23:33:41;357.60;;;123.40;;
34471;SDS011;20710;49.976;19.836;2024-01-10T23:39:50;320.80;;;112.70;;
34471;SDS011;20710;49.976;19.836;2024-01-10T23:46:14;353.60;;;123.40;;
34471;SDS011;20710;49.976;19.836;2024-01-10T23:52:16;311.90;;;105.50;;
34471;SDS011;20710;49.976;19.836;2024-01-10T23:58:19;350.90;;;122.40;;
